Latest Coastal Weather Observations for Maningrida Airport

IDD60701

Issued at 10:41 am CST Wednesday 1 April 2015 (issued every 10 minutes, with the page automatically refreshed every 10 minutes)

About coastal observations | Map of coastal stations | Coastal observations for NT | Marine services | Other Formats
Station Details ID: 014405 Name: MANINGRIDA AIRPORT Lat: -12.06 Lon: 134.23 Height: 28.1 m
Data from the previous 72 hours. | See also: Recent months at Maningrida Airport
Date/Time
CST
Temp

°C
Wind Pressure Rain
since 9am
mm
Weather Cloud Vis
km
Sea
Height
m
Swell
Dir
 
Speed
knots
Gust
knots
hPa Trend Height
m
Period
s
Dir
01/10:30am 30.9 E 5 10 1012.1 - 0.0 - - - - - - -
01/10:00am 30.4 E 4 9 1012.2 - 0.0 - Partly cloudy - - - - -
01/09:30am 29.6 E 6 9 1012.2 - 0.0 - Partly cloudy 10 - - - -
01/09:00am 29.1 ESE 5 7 1012.0 - 0.0 - - - - - - -
01/08:30am 27.9 S 5 6 1012.0 - 0.0 - - - - - - -
01/08:00am 26.9 S 3 4 1011.7 - 0.0 - - - - - - -
01/07:30am 25.4 S 3 5 1011.5 - 0.0 - - - - - - -
01/07:00am 23.6 CALM 0 0 1011.1 - 0.0 - - - - - - -
01/06:30am 23.2 SSW 3 4 1010.8 - 0.0 - - - - - - -
01/06:00am 23.5 SSW 3 4 1010.3 - 0.0 - - - - - - -
01/05:30am 23.4 S 4 5 1010.0 - 0.0 - - - - - - -
01/05:00am 24.1 SE 3 4 1009.7 - 0.0 - - - - - - -
01/04:30am 23.9 SE 5 6 1009.6 - 0.0 - - - - - - -
01/04:00am 23.8 S 3 3 1009.6 - 0.0 - - - - - - -
01/03:30am 23.9 S 4 4 1009.8 - 0.0 - - - - - - -
01/03:00am 24.4 S 4 5 1009.9 - 0.0 - - - - - - -
01/02:30am 24.3 CALM 0 0 1010.1 - 0.0 - - - - - - -
01/02:00am 24.8 CALM 0 0 1010.1 - 0.0 - - - - - - -
01/01:30am 25.8 SSE 4 5 1010.6 - 0.0 - - - - - - -
01/01:00am 26.0 SE 5 6 1010.9 - 0.0 - - - - - - -
01/12:30am 25.9 SE 5 6 1011.3 - 0.0 - - - - - - -
01/12:00am 25.7 SSE 4 6 1011.5 - 0.0 - - - - - - -
 
Date/Time
CST
Temp

°C
Wind Pressure Rain
since 9am
mm
Weather Cloud Vis
km
Sea
Height
m
Swell
Dir
 
Speed
knots
Gust
knots
hPa Trend Height
m
Period
s
Dir
31/11:30pm 25.5 CALM 0 3 1011.6 - 0.0 - - - - - - -
31/11:00pm 26.3 SE 1 3 1011.7 - 0.0 - - - - - - -
31/10:30pm 26.2 SSE 4 4 1011.2 - 0.0 - - - - - - -
31/10:00pm 26.4 SSW 3 4 1011.3 - 0.0 - - - - - - -
31/09:30pm 26.2 SSW 3 4 1011.2 - 0.0 - - 10 - - - -
31/09:00pm 26.5 SW 3 5 1011.1 - 0.0 - - 10 - - - -
31/08:30pm 27.2 SW 4 5 1010.8 - 0.0 - - 10 - - - -
31/08:00pm 28.5 SSW 6 9 1010.6 - 0.0 - Partly cloudy 10 - - - -
31/07:30pm 28.8 E 4 5 1010.0 - 0.0 - Partly cloudy 10 - - - -
31/07:00pm 29.0 ENE 3 5 1009.7 - 0.0 - - 10 - - - -
31/06:30pm 29.5 ENE 4 5 1009.5 - 0.0 - - 10 - - - -
31/06:00pm 30.3 NE 6 9 1009.2 - 0.0 - - - - - - -
31/05:30pm 31.4 E 5 7 1009.0 - 0.0 - - 10 - - - -
31/05:00pm 31.4 NNE 6 9 1009.0 - 0.0 - - - - - - -
31/04:30pm 31.6 ENE 8 10 1008.8 - 0.0 - - - - - - -
31/04:00pm 31.3 NE 9 13 1008.9 - 0.0 - - - - - - -
31/03:30pm 32.2 E 9 12 1008.9 - 0.0 - Partly cloudy - - - - -
31/03:00pm 32.3 ENE 10 14 1008.9 - 0.0 - - - - - - -
31/02:30pm 31.8 ENE 10 16 1009.3 - 0.0 - Partly cloudy - - - - -
31/02:00pm 31.9 ENE 9 14 1009.7 - 0.0 - Partly cloudy - - - - -
31/01:30pm 31.6 E 10 17 1010.2 - 0.0 - Partly cloudy - - - - -
31/01:00pm 31.8 E 9 14 1010.7 - 0.0 - - - - - - -
31/12:30pm 31.2 ENE 10 16 1011.3 - 0.0 - - - - - - -
31/12:00pm 31.9 ENE 11 15 1011.8 - 0.0 - Mostly clear - - - - -
31/11:30am 31.3 E 7 11 1012.2 - 0.0 - Partly cloudy - - - - -
31/11:00am 31.5 E 8 13 1012.5 - 0.0 - - - - - - -
31/10:30am 31.0 ESE 8 11 1012.7 - 0.0 - - - - - - -
31/10:00am 30.0 SE 9 13 1013.1 - 0.0 - - - - - - -
31/09:30am 30.0 ESE 9 13 1013.1 - 0.0 - - - - - - -
31/09:00am 28.4 SE 8 13 1013.2 - 0.0 - - - - - - -
31/08:30am 27.6 SE 8 11 1013.1 - 0.0 - - - - - - -
31/08:00am 26.7 SE 8 10 1013.0 - 0.0 - - - - - - -
31/07:30am 25.7 SSE 7 9 1012.7 - 0.0 - - - - - - -
31/07:00am 25.1 SE 6 7 1012.3 - 0.0 - - - - - - -
31/06:30am 25.1 SE 7 8 1011.8 - 0.0 - - - - - - -
31/06:00am 24.8 SSE 5 7 1011.5 - 0.0 - - - - - - -
31/05:30am 24.8 SE 6 8 1011.1 - 0.0 - - - - - - -
31/05:00am 25.0 SE 7 8 1010.7 - 0.0 - - - - - - -
31/04:30am 25.0 SE 6 8 1010.6 - 0.0 - - - - - - -
31/04:00am 24.8 SSE 5 7 1010.7 - 0.0 - - - - - - -
31/03:30am 24.8 SSE 5 6 1010.9 - 0.0 - - - - - - -
31/03:00am 25.0 SE 6 7 1011.0 - 0.0 - - - - - - -
31/02:30am 25.1 SE 6 7 1011.2 - 0.0 - - - - - - -
31/02:00am 25.2 SE 6 7 1011.2 - 0.0 - - - - - - -
31/01:30am 25.3 SSE 6 7 1011.5 - 0.0 - - - - - - -
31/01:00am 25.5 SSE 5 6 1011.8 - 0.0 - - - - - - -
31/12:30am 25.5 SSE 4 6 1012.1 - 0.0 - - - - - - -
31/12:00am 25.7 S 4 6 1012.4 - 0.0 - - - - - - -
 
Date/Time
CST
Temp

°C
Wind Pressure Rain
since 9am
mm
Weather Cloud Vis
km
Sea
Height
m
Swell
Dir
 
Speed
knots
Gust
knots
hPa Trend Height
m
Period
s
Dir
30/11:30pm 25.8 SSE 5 6 1012.5 - 0.0 - Partly cloudy - - - - -
30/11:00pm 25.8 SSE 4 5 1012.7 - 0.0 - - - - - - -
30/10:30pm 25.6 S 3 4 1012.8 - 0.0 - - - - - - -
30/10:00pm 25.8 S 4 5 1012.8 - 0.0 - - - - - - -
30/09:30pm 25.7 S 4 5 1012.6 - 0.0 - - - - - - -
30/09:00pm 26.0 S 3 6 1012.2 - 0.0 - - 10 - - - -
30/08:30pm 26.6 S 4 6 1012.1 - 0.0 - Partly cloudy 10 - - - -
30/08:00pm 26.9 S 5 8 1012.0 - 0.0 - Partly cloudy 10 - - - -
30/07:30pm 27.2 SSE 3 4 1011.6 - 0.0 - Cloudy 10 - - - -
30/07:00pm 27.2 SSE 5 7 1011.2 - 0.0 - - 10 - - - -
30/06:30pm 28.1 SE 9 15 1010.8 - 0.0 - Partly cloudy 10 - - - -
30/06:00pm 29.9 NE 8 11 1010.2 - 0.0 - Mostly clear 10 - - - -
30/05:30pm 30.5 ENE 7 11 1010.1 - 0.0 - - 10 - - - -
30/05:00pm 30.6 ENE 8 11 1010.0 - 0.0 - - - - - - -
30/04:30pm 30.8 NE 9 14 1009.9 - 0.0 - - - - - - -
30/04:00pm 31.5 NE 9 15 1009.9 - 0.0 - - - - - - -
30/03:30pm 32.2 ENE 9 14 1009.9 - 0.0 - - - - - - -
30/03:00pm 31.9 ENE 11 16 1010.1 - 0.0 - - - - - - -
30/02:30pm 31.7 E 11 15 1010.3 - 0.0 - - - - - - -
30/02:00pm 31.6 ENE 12 18 1010.5 - 0.0 - - - - - - -
30/01:30pm 32.1 E 12 16 1010.9 - 0.0 - - - - - - -
30/01:00pm 31.9 ENE 9 15 1011.3 - 0.0 - - - - - - -
30/12:30pm 31.1 ENE 11 17 1011.9 - 0.0 - - - - - - -
30/12:00pm 30.7 E 12 16 1012.5 - 0.0 - Partly cloudy - - - - -
30/11:30am 30.6 E 12 18 1012.9 - 0.0 - Partly cloudy - - - - -
30/11:00am 30.2 ENE 12 19 1013.1 - 0.0 - Partly cloudy - - - - -
30/10:30am 29.7 E 13 18 1013.4 - 0.0 - Partly cloudy - - - - -
30/10:00am 29.3 E 10 15 1013.5 - 0.0 - Partly cloudy - - - - -
30/09:30am 28.7 E 10 14 1013.5 - 0.0 - Partly cloudy - - - - -
30/09:00am 28.3 E 9 13 1013.5 - 0.0 - - - - - - -
30/08:30am 27.3 E 7 11 1013.3 - 0.0 - - - - - - -
30/08:00am 26.2 ESE 8 10 1012.9 - 0.0 - - - - - - -
30/07:30am 25.0 ESE 6 8 1012.7 - 0.0 - - - - - - -
30/07:00am 23.5 SSE 5 6 1012.3 - 0.0 - - - - - - -
30/06:30am 23.0 SE 6 6 1011.8 - 0.0 - - - - - - -
30/06:00am 23.2 SSE 5 6 1011.5 - 0.0 - - - - - - -
30/05:30am 23.4 SSE 5 5 1011.2 - 0.0 - - - - - - -
30/05:00am 23.4 SSE 5 6 1011.0 - 0.0 - - - - - - -
30/04:30am 23.6 SSE 4 4 1010.8 - 0.0 - - - - - - -
30/04:00am 24.1 SE 3 4 1010.7 - 0.0 - - - - - - -
30/03:30am 24.7 ESE 5 6 1010.8 - 0.0 - - - - - - -
30/03:00am 25.2 SE 7 9 1010.9 - 0.0 - - - - - - -
30/02:30am 25.3 SE 7 8 1011.1 - 0.0 - - - - - - -
30/02:00am 25.4 SE 6 7 1011.5 - 0.0 - - - - - - -
30/01:30am 25.8 SE 6 8 1011.8 - 0.0 - - - - - - -
30/01:00am 26.2 ESE 7 10 1012.0 - 0.0 - - - - - - -
30/12:30am 26.6 SE 8 11 1012.5 - 0.0 - Partly cloudy - - - - -
30/12:00am 26.0 SE 6 8 1012.7 - 0.0 - - - - - - -
 
Date/Time
CST
Temp

°C
Wind Pressure Rain
since 9am
mm
Weather Cloud Vis
km
Sea
Height
m
Swell
Dir
 
Speed
knots
Gust
knots
hPa Trend Height
m
Period
s
Dir
29/11:30pm 26.4 SE 5 6 1013.0 - 0.0 - - - - - - -
29/11:00pm 26.8 ESE 5 6 1012.9 - 0.0 - Partly cloudy - - - - -
29/10:30pm 26.8 ESE 5 6 1012.8 - 0.0 - Partly cloudy - - - - -
29/10:00pm 26.5 ESE 4 5 1012.8 - 0.0 - Partly cloudy - - - - -
29/09:30pm 26.6 ESE 4 5 1012.7 - 0.0 - Partly cloudy 10 - - - -
29/09:00pm 28.1 E 5 10 1012.4 - 0.0 Drizzle Cloudy 10 - - - -
29/08:30pm 28.2 NE 6 8 1011.8 - 0.0 - Partly cloudy 10 - - - -
29/08:00pm 28.0 E 4 6 1011.7 - 0.0 - Partly cloudy 10 - - - -
29/07:30pm 28.4 ENE 3 4 1011.1 - 0.0 - - 10 - - - -
29/07:00pm 28.8 NE 4 5 1010.8 - 0.0 - - 10 - - - -
29/06:30pm 29.3 NE 5 7 1010.6 - 0.0 - - 10 - - - -
29/06:00pm 30.3 N 6 8 1010.4 - 0.0 - - 10 - - - -
29/05:30pm 31.7 ENE 6 8 1010.1 - 0.0 - - - - - - -
29/05:00pm 32.2 ENE 7 10 1009.8 - 0.0 - - - - - - -
29/04:30pm 32.1 ENE 7 11 1009.9 - 0.0 - - - - - - -
29/04:00pm 31.8 ENE 8 11 1009.9 - 0.0 - - - - - - -
29/03:30pm 31.6 ENE 9 13 1009.9 - 0.0 - - - - - - -
29/03:00pm 31.4 NE 9 14 1010.1 - 0.0 - - - - - - -
29/02:30pm 31.9 ENE 10 16 1010.3 - 0.0 - - - - - - -
29/02:00pm 32.0 NE 9 14 1010.5 - 0.0 - - - - - - -
29/01:30pm 32.3 ENE 8 13 1011.1 - 0.0 - - - - - - -
29/01:00pm 31.5 ENE 11 17 1011.5 - 0.0 - - - - - - -
29/12:30pm 32.0 ENE 10 16 1011.9 - 0.0 - Partly cloudy - - - - -
29/12:00pm 31.6 E 10 14 1012.3 - 0.0 - Mostly clear - - - - -
29/11:30am 31.3 E 9 13 1012.8 - 0.0 - - - - - - -
29/11:00am 31.1 ESE 7 14 1012.9 - 0.0 - - - - - - -

Other Formats:

Comma delimited format used in spreadsheet applications
http://www.bom.gov.au/fwo/IDD60701/IDD60701.95142.axf

JavaScript Object Notation format (JSON) in row-major order
http://www.bom.gov.au/fwo/IDD60701/IDD60701.95142.json